Time;durP1;ratioP1;P1;durP2;ratioP2;P2;SDS_P1;SDS_P2;PMS_P1;PMS_P2;Temp;Humidity;BMP_temperature;BMP_pressure;BME280_temperature;BME280_humidity;BME280_pressure;Samples;Min_cycle;Max_cycle;Signal;HPM_P1;HPM_P2
2022/01/23 00:01:07;;;;;;;;;;;6.80;99.90;;;;;;4952986;28;20102;-59
2022/01/23 00:03:34;;;;;;;7.78;7.00;;;6.80;99.90;;;;;;4950596;28;20021;-59
2022/01/23 00:06:01;;;;;;;7.18;6.47;;;6.80;99.90;;;;;;4946175;28;20134;-59
2022/01/23 00:08:28;;;;;;;6.28;5.63;;;6.90;99.90;;;;;;4952266;28;20133;-59
2022/01/23 00:10:56;;;;;;;7.72;6.05;;;6.90;99.90;;;;;;4950328;28;20696;-59
2022/01/23 00:18:35;;;;;;;7.65;6.85;;;6.90;99.90;;;;;;4949291;28;20109;-59
2022/01/23 00:21:02;;;;;;;7.00;6.30;;;6.90;99.90;;;;;;4950099;28;20074;-58
2022/01/23 00:30:17;;;;;;;8.80;7.90;;;6.90;99.90;;;;;;4951089;28;20165;-59
2022/01/23 00:31:49;;;;;;;7.90;7.00;;;6.80;99.90;;;;;;4952889;28;20074;-58
2022/01/23 00:34:16;;;;;;;6.45;5.75;;;6.80;99.90;;;;;;4948286;28;20594;-57
2022/01/23 00:36:43;;;;;;;8.02;7.30;;;6.90;99.90;;;;;;4953866;28;20082;-58
2022/01/23 00:39:09;;;;;;;6.95;6.25;;;6.80;99.90;;;;;;4948542;28;20145;-59
2022/01/23 00:41:36;;;;;;;7.30;6.43;;;6.90;99.90;;;;;;4954286;28;20545;-59
2022/01/23 00:44:03;;;;;;;7.05;6.35;;;6.90;99.90;;;;;;4952999;28;20138;-59
2022/01/23 00:46:44;;;;;;;6.97;6.10;;;6.90;99.90;;;;;;4948491;28;20059;-59
2022/01/23 00:49:24;;;;;;;6.45;5.80;;;6.80;99.90;;;;;;4953845;28;20134;-59
2022/01/23 00:51:52;;;;;;;5.97;5.38;;;6.80;99.90;;;;;;4952194;28;20047;-59
2022/01/23 00:54:19;;;;;;;6.22;5.63;;;6.90;99.90;;;;;;4948108;28;20510;-58
2022/01/23 00:56:46;;;;;;;6.57;5.97;;;6.80;99.90;;;;;;4949635;28;20327;-58
2022/01/23 00:59:12;;;;;;;7.35;5.95;;;6.80;99.90;;;;;;4946306;28;20109;-59
2022/01/23 01:01:39;;;;;;;8.63;6.05;;;6.80;99.90;;;;;;4951189;28;20071;-60
2022/01/23 01:04:06;;;;;;;6.25;5.65;;;6.90;99.90;;;;;;4953935;28;20201;-59
2022/01/23 01:06:33;;;;;;;6.90;6.20;;;6.80;99.90;;;;;;4948070;28;20548;-59
2022/01/23 01:09:03;;;;;;;6.20;5.60;;;6.90;99.90;;;;;;4955044;28;20046;-59
2022/01/23 01:30:58;;;;;;;6.75;4.75;;;6.80;99.90;;;;;;4953511;28;20570;-58
2022/01/23 01:33:50;;;;;;;5.78;5.00;;;6.80;99.90;;;;;;4955321;28;20410;-60
2022/01/23 01:38:43;;;;;;;6.05;5.28;;;6.70;99.90;;;;;;4950677;28;20546;-59
2022/01/23 01:41:11;;;;;;;5.60;4.88;;;6.80;99.90;;;;;;4952093;28;20061;-58
2022/01/23 01:43:38;;;;;;;5.40;4.90;;;6.80;99.90;;;;;;4953284;28;20769;-59
2022/01/23 01:46:05;;;;;;;6.13;4.82;;;6.80;99.90;;;;;;4947088;28;20052;-58
2022/01/23 01:48:32;;;;;;;6.65;5.97;;;6.90;99.90;;;;;;4954580;28;20866;-58
2022/01/23 01:51:00;;;;;;;6.20;5.60;;;6.90;99.90;;;;;;4946544;28;20138;-58
2022/01/23 01:53:27;;;;;;;5.25;4.75;;;6.90;99.90;;;;;;4954122;28;20091;-59
2022/01/23 01:55:56;;;;;;;5.28;4.78;;;6.90;99.90;;;;;;4945740;28;20416;-59
2022/01/23 02:01:02;;;;;;;5.40;4.90;;;6.80;99.90;;;;;;4954060;28;20130;-59
2022/01/23 02:08:45;;;;;;;5.13;4.63;;;6.80;99.90;;;;;;4950608;28;20130;-58
2022/01/23 02:11:22;;;;;;;5.28;4.78;;;6.80;99.90;;;;;;4957065;28;20055;-58
2022/01/23 02:57:10;;;;;;;5.47;4.90;;;6.90;99.90;;;;;;4950906;28;20082;-58
2022/01/23 02:59:38;;;;;;;5.20;4.70;;;6.90;99.90;;;;;;4956976;28;20119;-59
2022/01/23 03:02:13;;;;;;;5.53;5.03;;;6.90;99.90;;;;;;4954885;28;20577;-58
2022/01/23 03:04:50;;;;;;;6.30;5.70;;;7.00;99.90;;;;;;4953600;28;20051;-59
2022/01/23 03:10:06;;;;;;;5.93;5.28;;;7.00;99.90;;;;;;4951601;28;20070;-58
2022/01/23 03:15:32;;;;;;;6.18;5.57;;;6.90;99.90;;;;;;4951218;28;20162;-59
2022/01/23 03:26:35;;;;;;;5.70;5.18;;;6.90;99.90;;;;;;4958009;28;20915;-59
2022/01/23 03:34:25;;;;;;;5.28;4.55;;;6.90;99.90;;;;;;4951021;28;20051;-58
2022/01/23 03:36:52;;;;;;;5.78;5.28;;;6.90;99.90;;;;;;4952660;28;20150;-59
2022/01/23 03:39:19;;;;;;;5.90;5.30;;;6.90;99.90;;;;;;4953857;28;20134;-59
2022/01/23 03:41:46;;;;;;;6.22;5.63;;;6.90;99.90;;;;;;4960872;28;20587;-57
2022/01/23 03:44:14;;;;;;;6.07;5.30;;;6.80;99.90;;;;;;4956024;28;20082;-58
2022/01/23 03:47:12;;;;;;;5.80;5.25;;;6.80;99.90;;;;;;4956074;28;20066;-58
2022/01/23 03:49:37;;;;;;;5.50;5.00;;;6.80;99.90;;;;;;4956063;28;20078;-59
2022/01/23 03:52:06;;;;;;;6.05;5.45;;;6.80;99.90;;;;;;4956570;28;20154;-57
2022/01/23 03:54:33;;;;;;;5.80;5.20;;;6.80;99.90;;;;;;4951342;28;20055;-58
2022/01/23 03:57:00;;;;;;;5.72;5.15;;;6.80;99.90;;;;;;4953153;28;20494;-58
2022/01/23 03:59:29;;;;;;;6.97;5.80;;;6.80;99.90;;;;;;4956021;28;20135;-59
2022/01/23 04:01:56;;;;;;;6.07;5.47;;;6.80;99.90;;;;;;4950851;28;20151;-59
2022/01/23 04:06:56;;;;;;;5.70;5.15;;;6.80;99.90;;;;;;4953720;28;20085;-59
2022/01/23 04:09:23;;;;;;;6.63;5.93;;;6.80;99.90;;;;;;4951633;28;20151;-58
2022/01/23 04:11:51;;;;;;;7.50;6.80;;;6.80;99.90;;;;;;4955639;28;20118;-58
2022/01/23 04:14:19;;;;;;;5.93;5.30;;;6.80;99.90;;;;;;4953453;28;20283;-58
2022/01/23 04:19:53;;;;;;;6.00;5.40;;;6.80;99.90;;;;;;4953257;28;20442;-59
2022/01/23 05:00:35;;;;;;;6.45;5.63;;;6.70;99.90;;;;;;4947697;28;20809;-58
2022/01/23 05:05:50;;;;;;;6.95;6.25;;;6.70;99.90;;;;;;4946074;28;20555;-58
2022/01/23 05:08:19;;;;;;;6.25;5.65;;;6.80;99.90;;;;;;4955661;28;20042;-59
2022/01/23 05:10:46;;;;;;;6.10;5.50;;;6.70;99.90;;;;;;4943566;28;20126;-59
2022/01/23 05:13:13;;;;;;;6.55;5.85;;;6.70;99.90;;;;;;4951331;28;20491;-59
2022/01/23 05:15:40;;;;;;;6.22;5.63;;;6.70;99.90;;;;;;4956226;28;20055;-58
2022/01/23 05:18:06;;;;;;;7.45;6.65;;;6.70;99.90;;;;;;4945572;28;20966;-59
2022/01/23 05:20:34;;;;;;;7.00;6.30;;;6.70;99.90;;;;;;4949492;28;20129;-58
2022/01/23 05:23:04;;;;;;;7.45;6.57;;;6.70;99.90;;;;;;4948050;28;20126;-58
2022/01/23 05:25:34;;;;;;;6.70;6.05;;;6.70;99.90;;;;;;4955018;28;20465;-58
2022/01/23 05:28:00;;;;;;;6.97;6.35;;;6.70;99.90;;;;;;4952447;28;20213;-59
2022/01/23 05:30:27;;;;;;;7.28;6.57;;;6.70;99.90;;;;;;4955840;28;20493;-59
2022/01/23 05:32:57;;;;;;;7.43;6.70;;;6.70;99.90;;;;;;4953186;28;20785;-59
2022/01/23 05:35:24;;;;;;;8.32;6.88;;;6.70;99.90;;;;;;4955464;28;20098;-59
2022/01/23 05:37:51;;;;;;;6.85;6.13;;;6.70;99.90;;;;;;4957958;28;20816;-59
2022/01/23 05:40:20;;;;;;;7.40;6.70;;;6.70;99.90;;;;;;4956645;28;20130;-59
2022/01/23 05:42:46;;;;;;;8.00;7.10;;;6.80;99.90;;;;;;4959532;28;20141;-58
2022/01/23 05:45:13;;;;;;;7.30;6.60;;;6.70;99.90;;;;;;4956452;28;20142;-58
2022/01/23 05:47:40;;;;;;;8.02;7.22;;;6.80;99.90;;;;;;4954180;28;20079;-58
2022/01/23 05:50:07;;;;;;;7.85;7.05;;;6.80;99.90;;;;;;4958579;28;20141;-59
2022/01/23 05:52:34;;;;;;;7.75;7.00;;;6.80;99.90;;;;;;4956812;28;20765;-58
2022/01/23 05:55:01;;;;;;;8.40;7.50;;;6.80;99.90;;;;;;4953571;28;20143;-59
2022/01/23 05:57:27;;;;;;;8.32;7.53;;;6.80;99.90;;;;;;4950935;28;20082;-59
2022/01/23 05:59:55;;;;;;;7.90;7.10;;;6.70;99.90;;;;;;4957173;28;20082;-58
2022/01/23 06:02:21;;;;;;;7.90;7.13;;;6.70;99.90;;;;;;4955372;28;20174;-59
2022/01/23 06:04:48;;;;;;;6.75;6.07;;;6.70;99.90;;;;;;4951330;28;20065;-58
2022/01/23 06:07:15;;;;;;;7.15;6.45;;;6.70;99.90;;;;;;4947826;28;20334;-59
2022/01/23 06:09:42;;;;;;;7.78;7.00;;;6.70;99.90;;;;;;4955762;28;20262;-59
2022/01/23 06:12:09;;;;;;;6.88;6.20;;;6.70;99.90;;;;;;4953874;28;20138;-58
2022/01/23 06:14:35;;;;;;;7.25;6.53;;;6.70;99.90;;;;;;4950220;28;20549;-58
2022/01/23 06:17:02;;;;;;;7.07;6.38;;;6.70;99.90;;;;;;4952632;28;20158;-58
2022/01/23 06:19:29;;;;;;;7.38;6.57;;;6.70;99.90;;;;;;4955254;28;20047;-59
2022/01/23 06:21:56;;;;;;;7.63;6.80;;;6.70;99.90;;;;;;4953827;28;20156;-59
2022/01/23 06:26:54;;;;;;;7.88;7.07;;;6.70;99.90;;;;;;4954023;28;20170;-59
2022/01/23 06:29:22;;;;;;;8.38;7.57;;;6.70;99.90;;;;;;4950321;28;20134;-59
2022/01/23 06:31:49;;;;;;;9.10;8.20;;;6.70;99.90;;;;;;4946687;28;20086;-59
2022/01/23 06:34:17;;;;;;;8.40;7.43;;;6.70;99.90;;;;;;4950118;28;20458;-59
2022/01/23 06:36:44;;;;;;;8.43;7.63;;;6.70;99.90;;;;;;4954197;28;20138;-59
2022/01/23 06:39:12;;;;;;;8.85;7.97;;;6.60;99.90;;;;;;4962684;28;20126;-59
2022/01/23 06:41:39;;;;;;;8.82;7.38;;;6.60;99.90;;;;;;4959080;28;20139;-59
2022/01/23 06:44:06;;;;;;;8.55;7.75;;;6.60;99.90;;;;;;4952906;28;20142;-59
2022/01/23 06:46:33;;;;;;;8.18;7.35;;;6.70;99.90;;;;;;4952266;28;20050;-58
2022/01/23 06:49:00;;;;;;;8.07;7.28;;;6.70;99.90;;;;;;4951795;28;20134;-59
2022/01/23 06:51:27;;;;;;;8.18;7.38;;;6.70;99.90;;;;;;4952709;28;20051;-58
2022/01/23 06:53:54;;;;;;;8.57;7.68;;;6.70;99.90;;;;;;4951278;28;20089;-57
2022/01/23 06:56:21;;;;;;;7.85;7.10;;;6.70;99.90;;;;;;4954634;28;20142;-59
2022/01/23 06:58:47;;;;;;;8.73;7.85;;;6.70;99.90;;;;;;4948580;28;20614;-59
2022/01/23 07:01:15;;;;;;;7.90;7.03;;;6.70;99.90;;;;;;4951119;28;20091;-58
2022/01/23 07:03:42;;;;;;;7.75;6.95;;;6.60;99.90;;;;;;4946347;28;20699;-59
2022/01/23 07:06:09;;;;;;;8.50;7.32;;;6.70;99.90;;;;;;4940592;28;20085;-59
2022/01/23 07:08:56;;;;;;;8.60;7.53;;;6.70;99.90;;;;;;4954038;28;20538;-60
2022/01/23 07:11:22;;;;;;;8.10;7.30;;;6.70;99.90;;;;;;4953568;28;20155;-58
2022/01/23 07:13:49;;;;;;;8.30;7.50;;;6.70;99.90;;;;;;4954132;28;20134;-59
2022/01/23 07:16:16;;;;;;;8.50;7.60;;;6.70;99.90;;;;;;4953317;28;20059;-60
2022/01/23 07:18:43;;;;;;;8.60;7.47;;;6.70;99.90;;;;;;4953456;28;20126;-59
2022/01/23 07:21:11;;;;;;;8.57;7.68;;;6.70;99.90;;;;;;4953683;28;20086;-59
2022/01/23 07:23:37;;;;;;;8.73;7.85;;;6.70;99.90;;;;;;4951124;28;20130;-59
2022/01/23 07:26:04;;;;;;;8.40;7.50;;;6.70;99.90;;;;;;4956278;28;20143;-58
2022/01/23 07:28:40;;;;;;;9.10;8.20;;;6.70;99.90;;;;;;4948513;28;20083;-58
2022/01/23 07:31:09;;;;;;;9.23;8.23;;;6.70;99.90;;;;;;4945185;28;20137;-58
2022/01/23 07:33:36;;;;;;;8.52;7.63;;;6.70;99.90;;;;;;4945756;28;20074;-59
2022/01/23 07:36:04;;;;;;;8.40;7.53;;;6.70;99.90;;;;;;4944764;28;20138;-59
2022/01/23 07:38:31;;;;;;;8.93;8.02;;;6.70;99.90;;;;;;4948259;28;20075;-57
2022/01/23 07:40:58;;;;;;;9.15;8.15;;;6.70;99.90;;;;;;4950220;28;20169;-56
2022/01/23 07:43:24;;;;;;;8.25;7.43;;;6.70;99.90;;;;;;4956808;28;20066;-59
2022/01/23 07:45:51;;;;;;;9.65;8.70;;;6.70;99.90;;;;;;4956210;28;20495;-58
2022/01/23 07:48:18;;;;;;;8.10;7.30;;;6.70;99.90;;;;;;4956304;28;20410;-59
2022/01/23 07:50:45;;;;;;;8.27;7.20;;;6.70;99.90;;;;;;4954914;28;20236;-59
2022/01/23 07:53:12;;;;;;;9.20;8.30;;;6.70;99.90;;;;;;4945817;28;20051;-59
2022/01/23 07:55:39;;;;;;;8.23;7.38;;;6.70;99.90;;;;;;4940641;28;20091;-59
2022/01/23 07:58:12;;;;;;;9.15;8.05;;;6.70;99.90;;;;;;4939897;28;20502;-59
2022/01/23 08:00:40;;;;;;;8.57;7.68;;;6.70;99.90;;;;;;4938279;28;20047;-58
2022/01/23 08:03:08;;;;;;;9.00;8.05;;;6.70;99.90;;;;;;4940212;28;20130;-59
2022/01/23 08:05:36;;;;;;;8.48;7.68;;;6.80;99.90;;;;;;4937585;28;20342;-58
2022/01/23 08:08:03;;;;;;;7.68;6.88;;;6.70;99.90;;;;;;4939952;28;20474;-59
2022/01/23 08:10:30;;;;;;;8.93;8.02;;;6.80;99.90;;;;;;4946388;28;20794;-59
2022/01/23 08:12:57;;;;;;;9.25;8.23;;;6.80;99.90;;;;;;4939909;28;20061;-58
2022/01/23 08:15:24;;;;;;;9.00;8.10;;;6.80;99.90;;;;;;4939445;28;20157;-59
2022/01/23 08:17:50;;;;;;;9.00;8.10;;;6.80;99.90;;;;;;4934568;28;20143;-59
2022/01/23 08:20:17;;;;;;;8.95;8.05;;;6.80;99.90;;;;;;4936809;28;20094;-57
2022/01/23 08:22:44;;;;;;;10.30;8.82;;;6.80;99.90;;;;;;4940390;28;20115;-59
2022/01/23 08:25:11;;;;;;;8.95;8.05;;;6.80;99.90;;;;;;4940006;28;20531;-59
2022/01/23 08:27:38;;;;;;;8.48;7.63;;;6.80;99.90;;;;;;4939933;28;20829;-59
2022/01/23 08:30:05;;;;;;;8.98;8.07;;;6.80;99.90;;;;;;4940864;28;20087;-58
2022/01/23 08:32:32;;;;;;;8.80;7.85;;;6.80;99.90;;;;;;4940251;28;20467;-58
2022/01/23 08:34:59;;;;;;;8.95;8.05;;;6.80;99.90;;;;;;4940000;28;20162;-58
2022/01/23 08:37:26;;;;;;;8.98;8.07;;;6.80;99.90;;;;;;4939225;28;20118;-59
2022/01/23 08:39:53;;;;;;;8.45;7.60;;;6.90;99.90;;;;;;4940078;28;20130;-59
2022/01/23 08:42:20;;;;;;;9.65;8.65;;;6.90;99.90;;;;;;4941083;28;20075;-58
2022/01/23 08:44:47;;;;;;;9.02;8.13;;;6.90;99.90;;;;;;4941518;28;20086;-58
2022/01/23 08:47:14;;;;;;;9.38;7.95;;;6.90;99.90;;;;;;4939068;28;20051;-59
2022/01/23 08:49:46;;;;;;;8.52;7.68;;;6.90;99.90;;;;;;4940456;28;20554;-59
2022/01/23 08:52:16;;;;;;;10.60;8.20;;;6.90;99.90;;;;;;4940263;28;20432;-58
2022/01/23 08:54:50;;;;;;;8.50;7.68;;;6.90;99.90;;;;;;4934171;28;20052;-59
2022/01/23 08:57:18;;;;;;;8.90;8.00;;;6.90;99.90;;;;;;4935986;28;20370;-59
2022/01/23 08:59:45;;;;;;;8.82;7.93;;;6.90;99.90;;;;;;4940444;28;20109;-59
2022/01/23 09:02:11;;;;;;;8.90;8.00;;;7.00;99.90;;;;;;4938693;28;20047;-59
2022/01/23 09:04:38;;;;;;;9.75;8.55;;;7.00;99.90;;;;;;4940223;28;20047;-59
2022/01/23 09:07:05;;;;;;;10.07;8.98;;;7.00;99.90;;;;;;4939872;28;20171;-59
2022/01/23 09:09:37;;;;;;;8.95;8.05;;;7.00;99.90;;;;;;4940037;28;20141;-59
2022/01/23 09:12:28;;;;;;;8.05;7.18;;;7.10;99.90;;;;;;4938650;28;20051;-59
2022/01/23 09:14:55;;;;;;;8.55;7.65;;;7.10;99.90;;;;;;4940823;28;20051;-59
2022/01/23 09:17:22;;;;;;;8.93;8.02;;;7.10;99.90;;;;;;4940552;28;20079;-59
2022/01/23 09:19:50;;;;;;;7.90;7.10;;;7.10;99.90;;;;;;4940335;28;20054;-59
2022/01/23 09:22:17;;;;;;;8.75;7.78;;;7.20;99.90;;;;;;4938934;28;20141;-59
2022/01/23 09:24:44;;;;;;;8.95;8.02;;;7.20;99.90;;;;;;4937912;28;20464;-59
2022/01/23 09:27:18;;;;;;;8.82;7.93;;;7.20;99.90;;;;;;4939894;28;20523;-60
2022/01/23 09:29:49;;;;;;;8.95;8.02;;;7.20;99.90;;;;;;4940833;28;20178;-60
2022/01/23 09:32:17;;;;;;;9.00;8.10;;;7.20;99.90;;;;;;4938354;28;20048;-59
2022/01/23 09:34:44;;;;;;;9.70;8.70;;;7.30;99.90;;;;;;4937782;28;20069;-59
2022/01/23 09:37:14;;;;;;;9.50;8.57;;;7.30;99.90;;;;;;4933918;28;20151;-59
2022/01/23 09:39:45;;;;;;;9.15;8.25;;;7.30;99.90;;;;;;4937829;28;20055;-59
2022/01/23 09:42:13;;;;;;;9.57;8.43;;;7.30;99.90;;;;;;4941449;28;20105;-59
2022/01/23 09:44:44;;;;;;;9.10;8.15;;;7.40;99.90;;;;;;4945298;28;20162;-59
2022/01/23 09:47:14;;;;;;;8.50;7.68;;;7.40;99.90;;;;;;4929785;28;20069;-59
2022/01/23 09:49:43;;;;;;;9.80;8.80;;;7.40;99.90;;;;;;4921460;28;20075;-59
2022/01/23 09:52:12;;;;;;;8.55;7.72;;;7.40;99.90;;;;;;4938164;28;20158;-59
2022/01/23 09:54:40;;;;;;;8.20;7.40;;;7.40;99.90;;;;;;4936635;28;20535;-60
2022/01/23 09:57:08;;;;;;;9.13;7.75;;;7.50;99.90;;;;;;4938554;28;20112;-59
2022/01/23 09:59:35;;;;;;;9.52;8.52;;;7.50;99.90;;;;;;4938476;28;20133;-59
2022/01/23 10:02:03;;;;;;;9.98;8.98;;;7.50;99.90;;;;;;4936204;28;20078;-59
2022/01/23 10:04:32;;;;;;;9.25;8.35;;;7.50;99.90;;;;;;4938453;28;20063;-59
2022/01/23 10:06:59;;;;;;;9.60;8.60;;;7.50;99.90;;;;;;4936832;28;20102;-59
2022/01/23 10:09:27;;;;;;;9.15;8.25;;;7.60;99.90;;;;;;4936168;28;20051;-59
2022/01/23 10:11:54;;;;;;;9.65;8.57;;;7.60;99.90;;;;;;4937856;28;20083;-59
2022/01/23 10:14:21;;;;;;;9.25;8.20;;;7.60;99.90;;;;;;4936441;28;20487;-59
2022/01/23 10:16:47;;;;;;;9.35;8.43;;;7.70;99.90;;;;;;4942788;28;20146;-60
2022/01/23 10:19:15;;;;;;;9.93;8.95;;;7.70;99.90;;;;;;4942715;28;20141;-60
2022/01/23 10:21:43;;;;;;;9.20;8.30;;;7.70;99.90;;;;;;4941969;28;20458;-59
2022/01/23 10:24:11;;;;;;;8.43;7.55;;;7.70;99.90;;;;;;4941863;28;20666;-60
2022/01/23 10:26:51;;;;;;;8.85;8.02;;;7.70;99.90;;;;;;4943466;28;20182;-60
2022/01/23 10:29:22;;;;;;;9.20;8.40;;;7.80;99.90;;;;;;4943064;28;20166;-58
2022/01/23 10:32:07;;;;;;;8.80;7.95;;;7.80;99.90;;;;;;4942595;28;20051;-59
2022/01/23 10:34:59;;;;;;;8.38;7.53;;;7.80;99.90;;;;;;4940142;28;20187;-58
2022/01/23 10:37:35;;;;;;;8.23;7.53;;;7.80;99.90;;;;;;4942278;28;20126;-59
2022/01/23 10:40:10;;;;;;;8.82;7.93;;;7.80;99.90;;;;;;4943392;28;20395;-59
2022/01/23 10:47:59;;;;;;;8.77;7.97;;;7.90;99.90;;;;;;4942575;28;20089;-59
2022/01/23 10:50:25;;;;;;;7.85;7.15;;;7.90;99.90;;;;;;4941924;28;20322;-57
2022/01/23 10:52:53;;;;;;;7.18;6.47;;;7.80;99.90;;;;;;4942303;28;20174;-59
2022/01/23 10:55:20;;;;;;;7.47;6.68;;;7.90;99.90;;;;;;4942059;28;20154;-58
2022/01/23 10:57:48;;;;;;;7.10;6.50;;;7.90;99.90;;;;;;4942878;28;20296;-56
2022/01/23 11:00:23;;;;;;;7.25;6.55;;;7.90;99.90;;;;;;4942026;28;20142;-58
2022/01/23 11:02:51;;;;;;;7.28;6.68;;;7.90;99.90;;;;;;4942964;28;20400;-59
2022/01/23 11:05:22;;;;;;;6.68;6.07;;;8.00;99.90;;;;;;4940717;29;20078;-58
2022/01/23 11:07:49;;;;;;;7.03;6.32;;;8.00;99.90;;;;;;4941396;28;20507;-58
2022/01/23 11:10:18;;;;;;;6.72;6.03;;;8.00;99.90;;;;;;4942479;29;20087;-60
2022/01/23 11:18:15;;;;;;;6.70;6.10;;;8.10;99.90;;;;;;4942536;28;20058;-59
2022/01/23 11:20:45;;;;;;;7.03;6.32;;;8.10;99.90;;;;;;4941842;28;20059;-59
2022/01/23 11:23:12;;;;;;;7.45;6.75;;;8.10;99.90;;;;;;4941340;28;20447;-60
2022/01/23 11:25:40;;;;;;;7.68;6.97;;;8.10;99.90;;;;;;4940813;28;20143;-59
2022/01/23 11:28:07;;;;;;;7.85;7.05;;;8.10;99.90;;;;;;4942138;28;20087;-60
2022/01/23 11:30:41;;;;;;;8.05;7.25;;;8.10;99.90;;;;;;4941302;29;20090;-59
2022/01/23 11:33:09;;;;;;;7.43;6.72;;;8.10;99.90;;;;;;4941934;28;20142;-60
2022/01/23 11:35:36;;;;;;;6.93;6.22;;;8.10;99.90;;;;;;4939404;29;20490;-59
2022/01/23 11:38:09;;;;;;;8.20;7.30;;;8.10;99.90;;;;;;4941167;28;20159;-59
2022/01/23 11:50:36;;;;;;;7.30;6.70;;;8.10;99.90;;;;;;4941105;28;20055;-60
2022/01/23 11:54:46;;;;;;;7.03;6.32;;;8.10;99.90;;;;;;4941413;28;20417;-60
2022/01/23 11:57:42;;;;;;;7.03;6.32;;;8.10;99.90;;;;;;4941927;29;20566;-60
2022/01/23 12:00:16;;;;;;;7.55;6.85;;;8.00;99.90;;;;;;4943820;28;20051;-60
2022/01/23 12:02:43;;;;;;;7.28;6.57;;;8.10;99.90;;;;;;4944248;28;20490;-60
2022/01/23 12:05:15;;;;;;;7.43;6.72;;;8.10;99.90;;;;;;4944091;28;20062;-60
2022/01/23 12:08:31;;;;;;;7.25;6.55;;;8.10;99.90;;;;;;4943564;28;20154;-60
2022/01/23 12:11:35;;;;;;;6.55;5.95;;;8.10;99.90;;;;;;4943613;28;20681;-60
2022/01/23 12:17:03;;;;;;;6.88;6.18;;;8.20;99.90;;;;;;4925307;28;20082;-60
2022/01/23 12:19:32;;;;;;;7.35;6.65;;;8.20;99.90;;;;;;4943980;28;20088;-59
2022/01/23 12:22:24;;;;;;;6.78;6.18;;;8.20;99.90;;;;;;4943678;28;20082;-60
2022/01/23 12:24:52;;;;;;;7.45;5.60;;;8.20;99.90;;;;;;4942099;28;20079;-60
2022/01/23 12:27:27;;;;;;;6.60;6.00;;;8.20;99.90;;;;;;4944029;28;20105;-60
2022/01/23 12:29:55;;;;;;;6.43;5.82;;;8.20;99.90;;;;;;4944405;28;20134;-59
2022/01/23 12:32:29;;;;;;;6.53;5.93;;;8.30;99.90;;;;;;4943990;28;20055;-59
2022/01/23 12:35:00;;;;;;;6.60;5.97;;;8.30;99.90;;;;;;4943395;28;20098;-59
2022/01/23 12:37:47;;;;;;;6.90;5.88;;;8.30;99.90;;;;;;4942969;28;20057;-60
2022/01/23 12:40:28;;;;;;;6.55;5.95;;;8.20;99.90;;;;;;4943542;28;20430;-60
2022/01/23 12:43:16;;;;;;;6.72;6.03;;;8.10;99.90;;;;;;4944261;28;20629;-59
2022/01/23 12:45:45;;;;;;;6.53;5.90;;;8.10;99.90;;;;;;4943693;28;20130;-60
2022/01/23 12:48:25;;;;;;;6.38;5.78;;;8.10;99.90;;;;;;4944074;28;20143;-60
2022/01/23 12:50:56;;;;;;;7.10;6.40;;;8.10;99.90;;;;;;4942488;28;20051;-60
2022/01/23 12:53:35;;;;;;;7.43;6.72;;;8.20;99.90;;;;;;4943525;28;20086;-60
2022/01/23 12:56:10;;;;;;;8.52;7.70;;;8.20;99.90;;;;;;4943127;28;20146;-60
2022/01/23 12:58:37;;;;;;;6.65;6.03;;;8.20;99.90;;;;;;4943715;28;20554;-60
2022/01/23 13:01:05;;;;;;;7.20;6.55;;;8.20;99.90;;;;;;4943273;28;20226;-59
2022/01/23 13:03:32;;;;;;;7.68;6.90;;;8.10;99.90;;;;;;4943885;28;20058;-60
2022/01/23 13:05:59;;;;;;;6.95;6.25;;;8.00;99.90;;;;;;4940997;28;20127;-60
2022/01/23 13:08:32;;;;;;;7.10;6.40;;;8.00;99.90;;;;;;4943351;28;20051;-60
2022/01/23 13:16:17;;;;;;;7.40;6.70;;;8.10;99.90;;;;;;4942928;29;20512;-60
2022/01/23 13:32:44;;;;;;;6.78;6.18;;;8.10;99.90;;;;;;4943010;28;20558;-59
2022/01/23 13:35:14;;;;;;;7.43;6.68;;;8.10;99.90;;;;;;4942487;28;20083;-60
2022/01/23 13:37:43;;;;;;;6.82;6.22;;;8.10;99.90;;;;;;4942134;28;20079;-60
2022/01/23 13:40:23;;;;;;;7.20;6.18;;;8.10;99.90;;;;;;4943240;28;20114;-60
2022/01/23 14:02:24;;;;;;;5.15;4.65;;;8.00;99.90;;;;;;4943400;28;20607;-59
2022/01/23 14:05:13;;;;;;;4.70;4.30;;;8.00;99.90;;;;;;4943657;28;20534;-59
2022/01/23 14:07:41;;;;;;;5.72;5.13;;;8.00;99.90;;;;;;4943367;28;20150;-59
2022/01/23 14:10:15;;;;;;;6.30;5.70;;;8.00;99.90;;;;;;4943256;28;20094;-59
2022/01/23 14:12:42;;;;;;;6.28;5.68;;;8.00;99.90;;;;;;4943089;28;20134;-59
2022/01/23 14:15:20;;;;;;;5.75;5.13;;;8.00;99.90;;;;;;4942953;28;20378;-58
2022/01/23 14:18:24;;;;;;;6.00;5.40;;;8.00;99.90;;;;;;4943335;28;20145;-59
2022/01/23 14:20:55;;;;;;;;;;;8.00;99.90;;;;;;4935805;28;20055;-59
2022/01/23 14:23:21;;;;;;;4.90;4.40;;;8.00;99.90;;;;;;4942888;28;20030;-59
2022/01/23 14:25:53;;;;;;;6.60;4.72;;;8.00;99.90;;;;;;4942856;28;20554;-59
2022/01/23 14:28:36;;;;;;;7.00;6.28;;;8.00;99.90;;;;;;4943529;28;20083;-58
2022/01/23 14:31:11;;;;;;;7.07;6.38;;;7.90;99.90;;;;;;4943090;29;20055;-59
2022/01/23 14:33:38;;;;;;;6.25;5.65;;;7.90;99.90;;;;;;4941820;28;20066;-59
2022/01/23 14:36:27;;;;;;;7.45;6.35;;;7.80;99.90;;;;;;4941406;28;20055;-59
2022/01/23 14:39:05;;;;;;;7.18;6.18;;;7.70;99.90;;;;;;4942292;28;20059;-59
2022/01/23 14:41:34;;;;;;;7.43;6.72;;;7.70;99.90;;;;;;4943110;28;20083;-59
2022/01/23 14:44:05;;;;;;;6.72;6.03;;;7.70;99.90;;;;;;4942601;28;20142;-59
2022/01/23 14:46:33;;;;;;;7.18;6.47;;;7.70;99.90;;;;;;4942957;28;20055;-59
2022/01/23 14:49:09;;;;;;;7.53;6.82;;;7.60;99.90;;;;;;4942796;28;20047;-59
2022/01/23 14:51:40;;;;;;;7.00;6.28;;;7.60;99.90;;;;;;4942671;28;20499;-57
2022/01/23 14:54:07;;;;;;;7.30;6.60;;;7.60;99.90;;;;;;4941970;28;20059;-58
2022/01/23 14:56:38;;;;;;;7.65;6.95;;;7.50;99.90;;;;;;4941704;29;20087;-59
2022/01/23 14:59:08;;;;;;;7.90;7.10;;;7.50;99.90;;;;;;4942897;28;20101;-59
2022/01/23 15:01:34;;;;;;;7.50;6.72;;;7.40;99.90;;;;;;4941996;28;20097;-59
2022/01/23 15:04:05;;;;;;;8.63;7.53;;;7.30;99.90;;;;;;4942816;28;20063;-58
2022/01/23 15:06:32;;;;;;;7.97;6.80;;;7.30;99.90;;;;;;4942922;28;20415;-61
2022/01/23 15:09:06;;;;;;;6.82;6.15;;;7.40;99.90;;;;;;4942105;28;20174;-59
2022/01/23 15:11:33;;;;;;;7.10;6.15;;;7.40;99.90;;;;;;4943234;28;20074;-59
2022/01/23 15:14:00;;;;;;;7.25;6.55;;;7.50;99.90;;;;;;4942359;28;20105;-58
2022/01/23 15:16:27;;;;;;;7.43;6.72;;;7.50;99.90;;;;;;4941918;28;20051;-59
2022/01/23 15:18:54;;;;;;;7.57;6.78;;;7.50;99.90;;;;;;4942032;28;20062;-59
2022/01/23 15:21:21;;;;;;;7.95;7.15;;;7.50;99.90;;;;;;4941431;29;20062;-59
2022/01/23 15:23:54;;;;;;;8.15;7.35;;;7.50;99.90;;;;;;4939863;28;20091;-58
2022/01/23 15:26:25;;;;;;;8.23;7.35;;;7.50;99.90;;;;;;4942019;29;20138;-60
2022/01/23 15:28:53;;;;;;;7.57;6.78;;;7.50;99.90;;;;;;4942180;28;20083;-60
2022/01/23 15:31:20;;;;;;;8.00;7.20;;;7.50;99.90;;;;;;4942393;28;20079;-59
2022/01/23 15:33:47;;;;;;;8.07;7.22;;;7.50;99.90;;;;;;4940099;28;20051;-58
2022/01/23 15:36:15;;;;;;;8.63;7.72;;;7.50;99.90;;;;;;4939574;29;20063;-59
2022/01/23 15:38:44;;;;;;;8.05;7.25;;;7.50;99.90;;;;;;4940988;28;20162;-59
2022/01/23 15:41:11;;;;;;;8.10;7.30;;;7.40;99.90;;;;;;4942017;28;20117;-59
2022/01/23 15:43:38;;;;;;;7.85;7.05;;;7.40;99.90;;;;;;4942033;28;20146;-60
2022/01/23 15:46:06;;;;;;;6.93;6.22;;;7.40;99.90;;;;;;4941706;28;20160;-59
2022/01/23 15:48:33;;;;;;;7.30;6.60;;;7.40;99.90;;;;;;4944402;28;20059;-59
2022/01/23 15:51:00;;;;;;;7.45;6.57;;;7.30;99.90;;;;;;4950224;28;20146;-60
2022/01/23 15:53:27;;;;;;;7.00;6.30;;;7.30;99.90;;;;;;4946463;28;20327;-59
2022/01/23 15:55:54;;;;;;;6.70;6.00;;;7.30;99.90;;;;;;4951343;28;20179;-59
2022/01/23 15:58:21;;;;;;;6.82;6.13;;;7.30;99.90;;;;;;4947094;28;20093;-59
2022/01/23 16:00:47;;;;;;;6.32;5.72;;;7.30;99.90;;;;;;4948470;28;20257;-59
2022/01/23 16:03:14;;;;;;;6.63;5.97;;;7.30;99.90;;;;;;4949215;28;20105;-59
2022/01/23 16:05:41;;;;;;;6.90;6.20;;;7.30;99.90;;;;;;4941129;29;20434;-59
2022/01/23 16:08:08;;;;;;;6.90;6.00;;;7.20;99.90;;;;;;4941353;28;20090;-59
2022/01/23 16:10:35;;;;;;;6.70;6.00;;;7.20;99.90;;;;;;4940968;29;20514;-59
2022/01/23 16:13:02;;;;;;;8.10;6.00;;;7.20;99.90;;;;;;4940966;28;20134;-59
2022/01/23 16:15:29;;;;;;;7.25;6.55;;;7.20;99.90;;;;;;4940709;28;20089;-59
2022/01/23 16:17:57;;;;;;;6.82;6.13;;;7.20;99.90;;;;;;4941534;28;20096;-60
2022/01/23 16:20:24;;;;;;;8.15;6.63;;;7.20;99.90;;;;;;4940605;28;20440;-59
2022/01/23 16:22:51;;;;;;;6.72;6.03;;;7.20;99.90;;;;;;4941147;29;20586;-59
2022/01/23 16:25:18;;;;;;;7.32;6.57;;;7.10;99.90;;;;;;4940295;28;20090;-59
2022/01/23 16:27:45;;;;;;;7.35;6.63;;;7.10;99.90;;;;;;4941410;28;20106;-59
2022/01/23 16:30:18;;;;;;;8.35;6.78;;;7.10;99.90;;;;;;4941004;28;20436;-58
2022/01/23 16:32:45;;;;;;;7.50;6.80;;;7.00;99.90;;;;;;4941977;28;20091;-59
2022/01/23 16:35:14;;;;;;;8.10;7.00;;;7.00;99.90;;;;;;4941019;28;20142;-59
2022/01/23 16:37:41;;;;;;;9.15;6.47;;;7.00;99.90;;;;;;4939325;28;20121;-60
2022/01/23 16:40:09;;;;;;;6.95;6.13;;;7.00;99.90;;;;;;4939647;29;20697;-59
2022/01/23 16:42:36;;;;;;;8.38;6.70;;;7.10;99.90;;;;;;4941151;28;20154;-59
2022/01/23 16:45:04;;;;;;;6.32;5.60;;;7.00;99.90;;;;;;4939434;28;20313;-59
2022/01/23 16:47:30;;;;;;;6.45;5.85;;;7.10;99.90;;;;;;4940849;28;20471;-58